Time;durP1;ratioP1;P1;durP2;ratioP2;P2;SDS_P1;SDS_P2;PMS_P1;PMS_P2;Temp;Humidity;BMP_temperature;BMP_pressure;BME280_temperature;BME280_humidity;BME280_pressure;Samples;Min_cycle;Max_cycle;Signal;HPM_P1;HPM_P2
2022/06/10 00:01:04;;;;;;;2.25;0.10;;;20.90;99.90;;;;;;5084189;28;20632;-83
2022/06/10 00:03:31;;;;;;;0.30;0.30;;;20.90;99.90;;;;;;5075599;28;20481;-83
2022/06/10 00:05:59;;;;;;;0.43;0.13;;;20.90;99.90;;;;;;5081413;28;20028;-83
2022/06/10 00:08:28;;;;;;;3.35;0.20;;;20.90;99.90;;;;;;5077350;28;20107;-82
2022/06/10 00:10:55;;;;;;;0.05;0.05;;;21.00;99.90;;;;;;5081363;28;20103;-83
2022/06/10 00:13:24;;;;;;;0.20;0.20;;;21.00;99.90;;;;;;5087894;28;20036;-84
2022/06/10 00:15:50;;;;;;;1.15;0.10;;;21.10;99.90;;;;;;5078910;28;20016;-82
2022/06/10 00:18:17;;;;;;;1.00;0.15;;;21.20;99.90;;;;;;5079314;28;20378;-84
2022/06/10 00:20:43;;;;;;;0.00;0.00;;;21.20;99.90;;;;;;5083501;28;20612;-82
2022/06/10 00:23:10;;;;;;;0.32;0.20;;;21.20;99.90;;;;;;5083141;28;20523;-82
2022/06/10 00:25:37;;;;;;;0.10;0.10;;;21.20;99.90;;;;;;5081329;28;20032;-84
2022/06/10 00:28:04;;;;;;;0.20;0.10;;;21.10;99.90;;;;;;5080978;28;20117;-83
2022/06/10 00:30:30;;;;;;;0.38;0.13;;;21.10;99.90;;;;;;5078242;28;20039;-83
2022/06/10 00:32:57;;;;;;;0.63;0.20;;;21.20;99.90;;;;;;5081931;28;20116;-83
2022/06/10 00:35:23;;;;;;;0.85;0.17;;;21.10;99.90;;;;;;5079697;28;20017;-83
2022/06/10 00:37:49;;;;;;;0.45;0.10;;;21.20;99.90;;;;;;5079905;28;20098;-84
2022/06/10 00:40:25;;;;;;;0.15;0.10;;;21.10;99.90;;;;;;5081106;28;20364;-84
2022/06/10 00:42:53;;;;;;;0.10;0.00;;;21.10;99.90;;;;;;5083466;28;20613;-84
2022/06/10 00:45:57;;;;;;;1.95;0.15;;;21.10;99.90;;;;;;5081329;28;20048;-83
2022/06/10 00:48:41;;;;;;;2.95;0.15;;;21.20;99.90;;;;;;5067512;28;20028;-82
2022/06/10 00:51:27;;;;;;;1.85;0.20;;;21.20;99.90;;;;;;5076429;28;20364;-83
2022/06/10 00:54:01;;;;;;;1.85;0.20;;;21.10;99.90;;;;;;5086556;28;20031;-84
2022/06/10 00:56:28;;;;;;;0.20;0.00;;;21.00;99.90;;;;;;5076778;28;20112;-84
2022/06/10 00:59:03;;;;;;;0.73;0.20;;;21.00;99.90;;;;;;5082635;28;20436;-83
2022/06/10 01:01:31;;;;;;;0.52;0.20;;;21.10;99.90;;;;;;5069182;28;20032;-83
2022/06/10 01:03:58;;;;;;;0.10;0.10;;;21.10;99.90;;;;;;5067639;28;20024;-84
2022/06/10 01:06:24;;;;;;;0.10;0.10;;;21.10;99.90;;;;;;5081883;28;20035;-84
2022/06/10 01:08:51;;;;;;;1.13;0.20;;;21.10;99.90;;;;;;5087112;28;20009;-84
2022/06/10 01:11:42;;;;;;;0.68;0.40;;;21.00;99.90;;;;;;5090625;28;20028;-86
2022/06/10 01:14:27;;;;;;;0.10;0.03;;;21.00;99.90;;;;;;5071816;28;20045;-84
2022/06/10 01:17:17;;;;;;;0.43;0.10;;;21.10;99.90;;;;;;5084695;28;20623;-83
2022/06/10 01:20:23;;;;;;;0.77;0.10;;;21.10;99.90;;;;;;5079705;28;20102;-84
2022/06/10 01:23:32;;;;;;;4.13;0.20;;;21.00;99.90;;;;;;5083002;28;20048;-83
2022/06/10 01:25:58;;;;;;;1.90;0.20;;;21.10;99.90;;;;;;5083150;28;20067;-83
2022/06/10 01:28:36;;;;;;;2.53;0.30;;;21.10;99.90;;;;;;5079911;28;20075;-83
2022/06/10 01:31:21;;;;;;;0.22;0.10;;;21.10;99.90;;;;;;5082208;28;20050;-84
2022/06/10 01:34:10;;;;;;;0.20;0.10;;;21.10;99.90;;;;;;5079449;28;20012;-83
2022/06/10 01:36:38;;;;;;;0.00;0.00;;;21.10;99.90;;;;;;5067593;28;20488;-84
2022/06/10 01:39:19;;;;;;;0.17;0.10;;;21.00;99.90;;;;;;5092773;28;20415;-83
2022/06/10 01:42:17;;;;;;;0.32;0.10;;;20.90;99.90;;;;;;5085197;28;20017;-84
2022/06/10 01:45:17;;;;;;;0.30;0.10;;;21.00;99.90;;;;;;5080024;28;20044;-82
2022/06/10 01:48:04;;;;;;;0.52;0.10;;;21.10;99.90;;;;;;5085160;28;20074;-84
2022/06/10 01:50:54;;;;;;;0.03;0.03;;;21.20;99.90;;;;;;5082633;28;20103;-83
2022/06/10 01:53:39;;;;;;;0.43;0.17;;;21.30;99.90;;;;;;5079132;28;20024;-83
2022/06/10 01:56:34;;;;;;;0.45;0.15;;;21.30;99.90;;;;;;5084361;28;20372;-83
2022/06/10 01:59:19;;;;;;;0.10;0.10;;;21.30;99.90;;;;;;5069856;28;20386;-83
2022/06/10 02:01:57;;;;;;;1.90;0.10;;;21.30;99.90;;;;;;5083996;28;20085;-82
2022/06/10 02:04:34;;;;;;;0.00;0.00;;;21.20;99.90;;;;;;5077603;28;20032;-84
2022/06/10 02:07:12;;;;;;;0.10;0.10;;;21.00;99.90;;;;;;5083971;28;20035;-83
2022/06/10 02:09:47;;;;;;;0.75;0.10;;;21.00;99.90;;;;;;5083203;28;20021;-84
2022/06/10 02:12:22;;;;;;;0.75;0.20;;;21.00;99.90;;;;;;5087719;28;20093;-83
2022/06/10 02:14:58;;;;;;;0.10;0.10;;;21.00;99.90;;;;;;5081974;28;20087;-83
2022/06/10 02:17:29;;;;;;;0.13;0.10;;;21.10;99.90;;;;;;5077650;28;20033;-83
2022/06/10 02:19:58;;;;;;;0.60;0.20;;;21.20;99.90;;;;;;5078852;28;20016;-83
2022/06/10 02:22:35;;;;;;;0.40;0.20;;;21.20;99.90;;;;;;5080935;28;20074;-84
2022/06/10 02:25:13;;;;;;;1.48;0.10;;;21.20;99.90;;;;;;5081901;28;20498;-83
2022/06/10 02:27:43;;;;;;;0.10;0.10;;;21.10;99.90;;;;;;5084789;28;20028;-83
2022/06/10 02:30:16;;;;;;;0.10;0.10;;;21.10;99.90;;;;;;5080630;28;20020;-82
2022/06/10 02:32:44;;;;;;;0.47;0.30;;;20.90;99.90;;;;;;5080713;28;20016;-82
2022/06/10 02:35:12;;;;;;;0.10;0.10;;;20.80;99.90;;;;;;5082042;28;20560;-83
2022/06/10 02:38:05;;;;;;;2.35;0.30;;;20.70;99.90;;;;;;5081146;28;20028;-83
2022/06/10 02:40:52;;;;;;;0.85;0.38;;;20.60;99.90;;;;;;5091702;28;20017;-83
2022/06/10 02:43:27;;;;;;;0.10;0.10;;;20.50;99.90;;;;;;5079237;28;20028;-83
2022/06/10 02:46:05;;;;;;;2.58;0.20;;;20.20;99.90;;;;;;5078131;28;20024;-83
2022/06/10 02:48:56;;;;;;;0.20;0.20;;;20.10;99.90;;;;;;5079587;28;20017;-83
2022/06/10 02:51:23;;;;;;;1.20;0.20;;;19.90;99.90;;;;;;5077894;28;20031;-83
2022/06/10 02:53:49;;;;;;;2.55;0.30;;;19.90;99.90;;;;;;5076590;28;20530;-83
2022/06/10 02:56:21;;;;;;;0.20;0.13;;;19.90;99.90;;;;;;5079653;28;20028;-83
2022/06/10 03:01:45;;;;;;;0.20;0.20;;;20.00;99.90;;;;;;5085047;28;20117;-83
2022/06/10 03:04:31;;;;;;;0.00;0.00;;;19.90;99.90;;;;;;5077156;28;20506;-83
2022/06/10 03:07:29;;;;;;;0.43;0.28;;;20.10;99.90;;;;;;5081736;28;20024;-83
2022/06/10 03:09:58;;;;;;;0.75;0.30;;;20.30;99.90;;;;;;5075688;28;20391;-84
2022/06/10 03:12:42;;;;;;;0.32;0.20;;;20.20;99.90;;;;;;5081960;28;20040;-83
2022/06/10 03:15:46;;;;;;;1.50;0.20;;;20.20;99.90;;;;;;5083621;28;20067;-83
2022/06/10 03:18:37;;;;;;;0.80;0.30;;;20.20;99.90;;;;;;4995622;28;20060;-84
2022/06/10 03:21:09;;;;;;;2.05;0.30;;;19.90;99.90;;;;;;4967827;28;20176;-83
2022/06/10 03:23:47;;;;;;;0.20;0.20;;;19.80;99.90;;;;;;5053326;28;20487;-83
2022/06/10 03:26:25;;;;;;;1.58;0.32;;;19.70;99.90;;;;;;5075474;28;20102;-82
2022/06/10 03:29:01;;;;;;;0.25;0.20;;;19.60;99.90;;;;;;5076492;28;20023;-83
2022/06/10 03:31:35;;;;;;;10.98;0.40;;;19.40;99.90;;;;;;5080251;28;20024;-82
2022/06/10 03:34:14;;;;;;;0.25;0.20;;;19.40;99.90;;;;;;5068056;28;20020;-82
2022/06/10 03:36:40;;;;;;;4.72;0.38;;;19.40;99.90;;;;;;5082203;28;20024;-82
2022/06/10 03:39:07;;;;;;;0.52;0.15;;;19.50;99.90;;;;;;5075971;28;20082;-82
2022/06/10 03:41:58;;;;;;;0.47;0.10;;;19.60;99.90;;;;;;5076276;28;20034;-83
2022/06/10 03:44:26;;;;;;;1.08;0.43;;;19.60;99.90;;;;;;5070219;28;20455;-83
2022/06/10 03:46:54;;;;;;;1.65;0.30;;;19.60;99.90;;;;;;5081648;28;20024;-82
2022/06/10 03:49:28;;;;;;;0.43;0.30;;;19.50;99.90;;;;;;5076919;28;20033;-83
2022/06/10 03:51:54;;;;;;;2.05;0.20;;;19.40;99.90;;;;;;5081600;28;20021;-82
2022/06/10 03:54:20;;;;;;;0.20;0.20;;;19.40;99.90;;;;;;5075533;28;20029;-82
2022/06/10 03:56:46;;;;;;;0.57;0.30;;;19.30;99.90;;;;;;5080640;28;20027;-82
2022/06/10 03:59:12;;;;;;;0.90;0.25;;;19.30;99.90;;;;;;5076734;28;20490;-82
2022/06/10 04:01:38;;;;;;;1.00;0.30;;;19.30;99.90;;;;;;5080169;28;20028;-82
2022/06/10 04:04:05;;;;;;;2.53;0.55;;;19.30;99.90;;;;;;5076000;28;20036;-83
2022/06/10 04:06:31;;;;;;;2.90;0.40;;;19.30;99.90;;;;;;5080034;28;20104;-83
2022/06/10 04:08:57;;;;;;;1.05;0.40;;;19.20;99.90;;;;;;5084339;28;20119;-83
2022/06/10 04:11:23;;;;;;;8.02;0.30;;;19.10;99.90;;;;;;5075500;28;20031;-83
2022/06/10 04:13:49;;;;;;;2.92;0.30;;;19.10;99.90;;;;;;5086621;28;20044;-82
2022/06/10 04:16:14;;;;;;;1.50;0.40;;;19.10;99.90;;;;;;5079705;28;20103;-83
2022/06/10 04:18:41;;;;;;;3.60;0.40;;;19.10;99.90;;;;;;5073439;28;20013;-82
2022/06/10 04:21:07;;;;;;;1.08;0.52;;;19.10;99.90;;;;;;5082437;28;20031;-82
2022/06/10 04:23:33;;;;;;;0.47;0.30;;;19.10;99.90;;;;;;5077453;28;20020;-82
2022/06/10 04:25:59;;;;;;;1.95;0.30;;;19.10;99.90;;;;;;5078200;28;20116;-83
2022/06/10 04:28:25;;;;;;;2.40;0.25;;;19.10;99.90;;;;;;5076419;28;20063;-82
2022/06/10 04:30:51;;;;;;;0.50;0.30;;;19.20;99.90;;;;;;5077695;28;20059;-83
2022/06/10 04:33:19;;;;;;;0.95;0.30;;;19.40;99.90;;;;;;5076312;28;20023;-82
2022/06/10 04:35:47;;;;;;;3.05;0.47;;;19.50;99.90;;;;;;5077494;28;20028;-82
2022/06/10 04:38:17;;;;;;;0.30;0.30;;;19.60;99.90;;;;;;5077024;28;20020;-82
2022/06/10 04:40:44;;;;;;;3.78;0.43;;;19.90;99.90;;;;;;5076116;28;20025;-82
2022/06/10 04:43:10;;;;;;;1.30;0.30;;;20.00;99.90;;;;;;5055809;28;20520;-82
2022/06/10 04:45:56;;;;;;;0.75;0.55;;;20.10;99.90;;;;;;5077662;28;20060;-83
2022/06/10 04:48:22;;;;;;;0.73;0.40;;;20.20;99.90;;;;;;5077598;28;20518;-83
2022/06/10 04:50:47;;;;;;;2.00;0.47;;;20.30;99.90;;;;;;5078593;28;20154;-83
2022/06/10 04:53:14;;;;;;;0.40;0.40;;;20.30;99.90;;;;;;5082236;28;20039;-82
2022/06/10 04:55:39;;;;;;;2.58;0.40;;;20.50;99.90;;;;;;5074952;28;20495;-82
2022/06/10 04:58:06;;;;;;;2.55;0.50;;;20.50;99.90;;;;;;5078548;28;20024;-83
2022/06/10 05:00:37;;;;;;;1.00;0.60;;;20.60;99.90;;;;;;5080614;28;20020;-82
2022/06/10 05:03:04;;;;;;;1.50;0.80;;;20.70;99.90;;;;;;5080283;28;20059;-84
2022/06/10 05:05:30;;;;;;;3.05;0.68;;;20.70;99.90;;;;;;5081127;28;20035;-83
2022/06/10 05:07:56;;;;;;;0.85;0.35;;;20.70;99.90;;;;;;5080340;28;20027;-84
2022/06/10 05:10:22;;;;;;;13.73;0.90;;;20.70;99.90;;;;;;5076796;28;20054;-84
2022/06/10 05:12:49;;;;;;;1.50;0.43;;;20.70;99.90;;;;;;5089359;28;20040;-84
2022/06/10 05:15:18;;;;;;;2.20;0.73;;;20.80;99.90;;;;;;5078204;28;20024;-84
2022/06/10 05:17:43;;;;;;;1.15;0.30;;;20.90;99.90;;;;;;5078747;28;20559;-84
2022/06/10 05:20:15;;;;;;;0.50;0.50;;;21.10;99.90;;;;;;5079302;28;20024;-84
2022/06/10 05:22:41;;;;;;;0.38;0.30;;;21.20;99.90;;;;;;5079599;28;20527;-84
2022/06/10 05:25:07;;;;;;;0.73;0.32;;;21.30;99.90;;;;;;5079888;28;20116;-83
2022/06/10 05:27:33;;;;;;;1.38;0.40;;;21.40;99.90;;;;;;5081805;28;20024;-84
2022/06/10 05:29:58;;;;;;;1.17;0.40;;;21.60;99.90;;;;;;5079190;28;20017;-83
2022/06/10 05:32:24;;;;;;;0.32;0.22;;;21.60;99.90;;;;;;5079513;28;20055;-80
2022/06/10 05:34:50;;;;;;;1.20;0.50;;;21.60;99.90;;;;;;5077087;28;20099;-80
2022/06/10 05:37:25;;;;;;;2.35;0.43;;;21.70;99.90;;;;;;5080435;28;20066;-91
2022/06/10 05:39:52;;;;;;;3.35;0.60;;;21.90;99.90;;;;;;5079272;28;20092;-84
2022/06/10 05:42:18;;;;;;;1.02;0.77;;;22.10;99.90;;;;;;5086131;28;20023;-84
2022/06/10 05:44:50;;;;;;;1.67;0.70;;;22.20;99.90;;;;;;5078706;28;20028;-84
2022/06/10 05:47:24;;;;;;;5.22;0.95;;;22.30;99.90;;;;;;5074483;28;20070;-84
2022/06/10 05:49:54;;;;;;;1.23;0.70;;;22.50;99.90;;;;;;5078824;28;20032;-82
2022/06/10 05:52:22;;;;;;;3.95;0.90;;;22.50;99.90;;;;;;5078759;28;20021;-81
2022/06/10 05:54:49;;;;;;;3.75;0.90;;;22.60;99.90;;;;;;5080104;28;20029;-81
2022/06/10 05:57:15;;;;;;;1.10;0.90;;;22.70;99.90;;;;;;5083657;28;20028;-81
2022/06/10 05:59:41;;;;;;;3.05;0.93;;;22.80;99.90;;;;;;5082990;28;20107;-83
2022/06/10 06:02:09;;;;;;;6.82;0.80;;;23.00;99.90;;;;;;5083073;28;20020;-83
2022/06/10 06:04:35;;;;;;;3.70;1.00;;;22.90;99.90;;;;;;5078501;28;20048;-83
2022/06/10 06:07:01;;;;;;;9.43;0.90;;;22.90;99.90;;;;;;5080356;28;20021;-82
2022/06/10 06:09:27;;;;;;;5.80;0.73;;;23.10;99.90;;;;;;5076217;28;20213;-83
2022/06/10 06:11:57;;;;;;;0.50;0.50;;;23.20;99.90;;;;;;5083739;28;20548;-83
2022/06/10 06:14:27;;;;;;;1.73;0.60;;;23.20;99.90;;;;;;5085960;28;20036;-83
2022/06/10 06:16:59;;;;;;;7.80;1.17;;;23.30;99.90;;;;;;5080726;28;20121;-83
2022/06/10 06:19:27;;;;;;;0.30;0.30;;;23.40;99.90;;;;;;5076936;28;20029;-82
2022/06/10 06:21:53;;;;;;;3.90;0.63;;;23.50;99.90;;;;;;5082469;28;20024;-82
2022/06/10 06:24:19;;;;;;;1.92;0.40;;;23.60;99.90;;;;;;5084239;28;20541;-82
2022/06/10 06:26:44;;;;;;;3.20;0.68;;;23.70;99.90;;;;;;5083722;28;20019;-82
2022/06/10 06:29:11;;;;;;;1.95;0.50;;;23.80;99.90;;;;;;5079077;28;20562;-83
2022/06/10 06:31:37;;;;;;;1.83;0.70;;;23.80;99.90;;;;;;5077543;28;20021;-82
2022/06/10 06:34:04;;;;;;;3.25;1.00;;;23.90;99.90;;;;;;5086403;28;20021;-82
2022/06/10 06:36:36;;;;;;;3.10;1.30;;;24.10;99.90;;;;;;5082019;28;20020;-82
2022/06/10 06:39:04;;;;;;;0.40;0.30;;;24.20;99.90;;;;;;5087697;28;20074;-83
2022/06/10 06:41:30;;;;;;;4.60;0.98;;;24.20;99.90;;;;;;5083733;28;20029;-83
2022/06/10 06:43:56;;;;;;;2.58;0.70;;;24.20;99.90;;;;;;5066797;28;20032;-83
2022/06/10 06:46:21;;;;;;;4.22;0.77;;;24.30;99.90;;;;;;5070265;28;20036;-82
2022/06/10 06:48:47;;;;;;;2.92;0.38;;;24.40;99.90;;;;;;5086496;28;20091;-82
2022/06/10 06:51:15;;;;;;;0.38;0.38;;;24.30;99.90;;;;;;5079392;28;20028;-82
2022/06/10 06:53:41;;;;;;;3.10;0.60;;;24.20;99.90;;;;;;5075580;28;20486;-82
2022/06/10 06:56:12;;;;;;;1.77;0.77;;;24.20;99.90;;;;;;5076460;28;20025;-81
2022/06/10 06:58:37;;;;;;;1.73;0.57;;;24.30;99.90;;;;;;5082836;28;20031;-82
2022/06/10 07:01:03;;;;;;;5.75;0.80;;;24.30;99.90;;;;;;5074927;28;20021;-82
2022/06/10 07:03:29;;;;;;;4.38;0.57;;;24.20;99.90;;;;;;5071121;28;20021;-82
2022/06/10 07:05:54;;;;;;;1.55;0.52;;;24.30;99.90;;;;;;5073039;28;20093;-82
2022/06/10 07:08:20;;;;;;;1.70;0.32;;;24.40;99.90;;;;;;5077384;28;20073;-81
2022/06/10 07:10:46;;;;;;;2.45;0.25;;;24.40;99.90;;;;;;5077840;28;20026;-80
2022/06/10 07:13:13;;;;;;;2.03;0.30;;;24.50;99.90;;;;;;5085668;28;20040;-81
2022/06/10 07:15:42;;;;;;;0.60;0.30;;;24.50;99.90;;;;;;5080415;28;20743;-81
2022/06/10 07:18:08;;;;;;;0.80;0.30;;;24.50;99.90;;;;;;5077939;28;20686;-79
2022/06/10 07:20:35;;;;;;;1.90;0.82;;;24.60;99.90;;;;;;5079066;28;20062;-80
2022/06/10 07:23:02;;;;;;;0.30;0.30;;;24.80;99.90;;;;;;5079062;28;20498;-81
2022/06/10 07:25:30;;;;;;;1.95;0.22;;;24.80;99.90;;;;;;5078083;28;20037;-79
2022/06/10 07:27:56;;;;;;;0.82;0.25;;;24.90;99.90;;;;;;5080563;28;20494;-79
2022/06/10 07:30:28;;;;;;;1.17;0.40;;;24.90;99.90;;;;;;5077404;28;20024;-79
2022/06/10 07:32:54;;;;;;;0.22;0.22;;;25.00;99.90;;;;;;5073971;28;20031;-80
2022/06/10 07:35:21;;;;;;;3.60;0.35;;;25.20;99.90;;;;;;5078064;28;20025;-81
2022/06/10 07:37:48;;;;;;;0.50;0.30;;;25.60;99.90;;;;;;5080557;28;20021;-81
2022/06/10 07:43:27;;;;;;;3.38;0.30;;;26.20;99.90;;;;;;5080751;28;20489;-80
2022/06/10 07:45:54;;;;;;;0.32;0.25;;;26.30;99.90;;;;;;5079084;28;20035;-80
2022/06/10 07:48:21;;;;;;;1.45;0.20;;;26.60;99.90;;;;;;5078312;28;20048;-81
2022/06/10 07:50:47;;;;;;;0.20;0.20;;;26.60;99.90;;;;;;5077904;28;20490;-79
2022/06/10 07:53:13;;;;;;;0.10;0.10;;;26.50;99.90;;;;;;5078268;28;20382;-79
2022/06/10 07:55:40;;;;;;;3.00;0.30;;;26.40;99.90;;;;;;5078155;28;20024;-79
2022/06/10 07:58:06;;;;;;;0.98;0.30;;;26.30;99.90;;;;;;5081240;28;20025;-80
2022/06/10 08:00:34;;;;;;;0.45;0.30;;;26.40;99.40;;;;;;5077033;28;20032;-80
2022/06/10 08:03:00;;;;;;;1.88;0.55;;;26.20;98.50;;;;;;5078369;28;20028;-80
2022/06/10 08:05:27;;;;;;;2.65;0.40;;;26.00;99.90;;;;;;5075882;28;20040;-81
2022/06/10 08:07:52;;;;;;;2.10;0.30;;;26.00;99.20;;;;;;5078698;28;20074;-80
2022/06/10 08:10:23;;;;;;;1.75;0.40;;;25.80;99.90;;;;;;5077355;28;20036;-80
2022/06/10 08:12:49;;;;;;;0.30;0.30;;;25.80;99.90;;;;;;5082690;28;20032;-80
2022/06/10 08:15:15;;;;;;;3.50;0.20;;;25.80;99.30;;;;;;5078139;28;20027;-81
2022/06/10 08:17:41;;;;;;;0.43;0.30;;;25.70;99.80;;;;;;5078770;28;20182;-80
2022/06/10 08:20:14;;;;;;;0.20;0.20;;;25.80;99.90;;;;;;5077684;28;20021;-81
2022/06/10 08:22:40;;;;;;;1.35;0.40;;;26.00;99.60;;;;;;5079783;28;20028;-81
2022/06/10 08:25:08;;;;;;;0.55;0.43;;;26.30;99.90;;;;;;5080275;28;20071;-80
2022/06/10 08:27:34;;;;;;;1.80;0.45;;;26.40;99.90;;;;;;5082464;28;20107;-82
2022/06/10 08:30:03;;;;;;;2.20;0.43;;;26.60;99.90;;;;;;5078722;28;20099;-80
2022/06/10 08:32:29;;;;;;;4.45;0.90;;;26.80;99.90;;;;;;5079855;28;20020;-81
2022/06/10 08:34:54;;;;;;;4.57;0.70;;;26.90;99.90;;;;;;5077710;28;20396;-81
2022/06/10 08:37:20;;;;;;;2.75;0.55;;;26.90;99.90;;;;;;5079691;28;20109;-81
2022/06/10 08:39:46;;;;;;;1.65;0.80;;;26.80;99.90;;;;;;5075549;28;20021;-80
2022/06/10 08:42:42;;;;;;;4.72;0.80;;;26.80;99.90;;;;;;5086016;28;20028;-80
2022/06/10 08:45:29;;;;;;;2.45;0.40;;;26.70;99.90;;;;;;5063871;28;20044;-80
2022/06/10 08:48:33;;;;;;;1.55;0.60;;;26.70;99.90;;;;;;5073095;28;20021;-80
2022/06/10 08:51:31;;;;;;;2.85;0.73;;;27.00;99.90;;;;;;5038361;28;20032;-80
2022/06/10 08:54:13;;;;;;;1.55;0.70;;;27.20;99.80;;;;;;5065102;28;20321;-81
2022/06/10 08:56:49;;;;;;;1.67;0.40;;;27.40;99.90;;;;;;5082108;28;20024;-82
2022/06/10 08:59:24;;;;;;;6.22;0.75;;;27.50;99.40;;;;;;5076112;28;20029;-80
2022/06/10 09:02:08;;;;;;;1.70;0.35;;;27.50;99.90;;;;;;5081590;28;20031;-81
2022/06/10 09:04:52;;;;;;;0.45;0.32;;;27.50;99.90;;;;;;5076371;28;20533;-80
2022/06/10 09:07:25;;;;;;;0.82;0.50;;;27.40;99.90;;;;;;5079000;28;20527;-80
2022/06/10 09:09:52;;;;;;;3.22;0.80;;;27.20;99.90;;;;;;5077044;28;20027;-80
2022/06/10 09:12:25;;;;;;;3.78;0.45;;;27.10;99.90;;;;;;5084811;28;20044;-80
2022/06/10 09:14:55;;;;;;;2.55;0.88;;;27.30;99.90;;;;;;5078169;28;20394;-80
2022/06/10 09:17:29;;;;;;;0.93;0.47;;;27.30;99.10;;;;;;5073782;28;20024;-81
2022/06/10 09:20:13;;;;;;;4.95;0.70;;;27.20;99.60;;;;;;5075977;28;20504;-81
2022/06/10 09:22:48;;;;;;;1.02;0.55;;;27.00;99.90;;;;;;5079646;28;20029;-81
2022/06/10 09:25:17;;;;;;;0.38;0.30;;;26.80;99.30;;;;;;5080697;28;20116;-81
2022/06/10 09:27:48;;;;;;;1.63;0.50;;;26.50;99.40;;;;;;5081743;28;20017;-81
2022/06/10 09:30:17;;;;;;;1.13;0.50;;;26.60;99.90;;;;;;5081065;28;20024;-80
2022/06/10 09:33:04;;;;;;;0.40;0.40;;;27.00;99.90;;;;;;5082888;28;20154;-81
2022/06/10 09:36:04;;;;;;;1.98;0.50;;;27.40;99.60;;;;;;5079111;28;20029;-81
2022/06/10 09:38:54;;;;;;;0.77;0.35;;;27.90;99.30;;;;;;5080538;28;20103;-81
2022/06/10 09:41:26;;;;;;;1.35;0.60;;;28.20;99.60;;;;;;5079428;28;20081;-81
2022/06/10 09:44:12;;;;;;;2.28;0.40;;;28.40;98.60;;;;;;5089679;28;20117;-81
2022/06/10 09:47:09;;;;;;;5.28;0.50;;;28.70;98.10;;;;;;5084311;28;20081;-81
2022/06/10 09:50:00;;;;;;;5.05;0.47;;;29.30;99.70;;;;;;5079528;28;20017;-81
2022/06/10 09:52:44;;;;;;;0.10;0.10;;;29.80;98.30;;;;;;5079437;28;20016;-81
2022/06/10 09:55:49;;;;;;;2.35;0.50;;;30.10;96.00;;;;;;5083006;28;20024;-81
2022/06/10 09:58:33;;;;;;;0.40;0.35;;;30.30;95.30;;;;;;5068544;28;20423;-81
2022/06/10 10:01:21;;;;;;;1.88;0.22;;;30.00;95.00;;;;;;5081147;28;20103;-81
2022/06/10 10:04:23;;;;;;;1.75;0.70;;;29.90;95.90;;;;;;5079831;28;20390;-81
2022/06/10 10:07:03;;;;;;;0.20;0.10;;;29.70;96.20;;;;;;5083114;28;20026;-81
2022/06/10 10:09:28;;;;;;;1.45;0.50;;;29.60;95.10;;;;;;5083900;28;20021;-81
2022/06/10 10:12:10;;;;;;;1.05;0.35;;;29.60;94.60;;;;;;5087945;28;20485;-81
2022/06/10 10:14:48;;;;;;;4.68;0.28;;;29.50;95.00;;;;;;5084069;28;20021;-81
2022/06/10 10:17:28;;;;;;;0.30;0.30;;;29.40;94.40;;;;;;5081440;28;20442;-82
2022/06/10 10:20:04;;;;;;;0.40;0.40;;;29.30;95.20;;;;;;5079640;28;20538;-82
2022/06/10 10:23:05;;;;;;;0.43;0.40;;;29.30;94.70;;;;;;5082251;28;20062;-81
2022/06/10 10:25:31;;;;;;;1.52;0.43;;;29.10;95.00;;;;;;5064519;28;20499;-81
2022/06/10 10:27:57;;;;;;;0.30;0.30;;;29.30;95.30;;;;;;5092047;28;20024;-83
2022/06/10 10:30:33;;;;;;;0.30;0.30;;;29.40;94.30;;;;;;5080259;28;20085;-81
2022/06/10 10:33:03;;;;;;;1.75;0.32;;;29.50;94.80;;;;;;5076352;28;20499;-81
2022/06/10 10:35:34;;;;;;;2.35;0.30;;;29.50;93.90;;;;;;5078759;28;20032;-81
2022/06/10 10:38:07;;;;;;;1.40;0.47;;;29.40;94.30;;;;;;5081732;28;20024;-81
2022/06/10 10:40:40;;;;;;;0.80;0.43;;;29.30;94.60;;;;;;5080098;28;20024;-81
2022/06/10 10:43:16;;;;;;;5.47;0.30;;;29.30;94.10;;;;;;5091244;28;20115;-84
2022/06/10 10:45:57;;;;;;;0.95;0.50;;;29.00;93.20;;;;;;5079760;28;20067;-88
2022/06/10 10:48:31;;;;;;;1.13;0.88;;;28.90;94.80;;;;;;5084362;28;20012;-82
2022/06/10 10:51:05;;;;;;;3.15;0.45;;;28.90;95.70;;;;;;5085894;28;20081;-89
2022/06/10 10:53:54;;;;;;;2.13;0.95;;;29.00;93.30;;;;;;5076687;28;20024;-93
2022/06/10 10:56:31;;;;;;;1.20;0.43;;;29.10;92.90;;;;;;5078496;28;20501;-89
2022/06/10 10:58:58;;;;;;;7.75;3.10;;;29.40;93.80;;;;;;5066411;28;20016;-89
2022/06/10 11:01:43;;;;;;;1.65;0.98;;;29.70;95.10;;;;;;5079988;28;20060;-85
2022/06/10 11:04:30;;;;;;;1.10;0.80;;;29.80;93.20;;;;;;5070150;28;20139;-83
2022/06/10 11:07:11;;;;;;;4.75;1.17;;;29.60;95.70;;;;;;5081019;28;20446;-85
2022/06/10 11:09:53;;;;;;;3.50;2.22;;;29.50;93.10;;;;;;5083134;28;20027;-85
2022/06/10 11:12:25;;;;;;;1.40;1.15;;;29.30;92.40;;;;;;5083898;28;20036;-84
2022/06/10 11:15:00;;;;;;;3.42;2.35;;;28.90;92.40;;;;;;5080965;28;20077;-85
2022/06/10 11:17:26;;;;;;;2.15;1.48;;;28.60;92.40;;;;;;5077427;28;20107;-84
2022/06/10 11:20:13;;;;;;;2.40;1.73;;;28.40;92.70;;;;;;5079076;28;20064;-85
2022/06/10 11:22:39;;;;;;;2.20;1.77;;;28.30;93.80;;;;;;5077554;28;20483;-86
2022/06/10 11:25:16;;;;;;;2.55;1.67;;;28.60;93.10;;;;;;5079004;28;20054;-86
2022/06/10 11:27:48;;;;;;;0.70;0.57;;;28.80;93.30;;;;;;5080963;28;20023;-85
2022/06/10 11:30:13;;;;;;;5.20;1.85;;;29.10;93.50;;;;;;5078730;28;20025;-77
2022/06/10 11:32:51;;;;;;;0.75;0.60;;;29.40;93.40;;;;;;5090276;28;20773;-84
2022/06/10 11:35:25;;;;;;;1.65;1.10;;;29.70;93.10;;;;;;5082413;28;20048;-87
2022/06/10 11:37:56;;;;;;;6.50;4.05;;;30.00;93.30;;;;;;5065036;28;20024;-95
2022/06/10 11:40:57;;;;;;;4.63;3.50;;;30.40;92.40;;;;;;5085034;28;20058;-92
2022/06/10 11:43:42;;;;;;;2.72;1.65;;;31.00;92.20;;;;;;5080313;28;20021;-92
2022/06/10 11:46:26;;;;;;;1.60;0.95;;;31.30;92.90;;;;;;5079356;28;20113;-92
2022/06/10 11:48:55;;;;;;;2.00;1.08;;;31.70;92.30;;;;;;5074315;28;20021;-88
2022/06/10 11:51:35;;;;;;;1.17;0.93;;;32.30;92.40;;;;;;5081136;28;20028;-90
2022/06/10 11:54:20;;;;;;;1.08;0.68;;;32.60;92.80;;;;;;5066956;28;20017;-91
2022/06/10 12:00:33;;;;;;;1.63;0.80;;;33.20;90.70;;;;;;5001356;28;21104;-93
2022/06/10 12:03:19;;;;;;;1.35;0.52;;;33.00;90.00;;;;;;5074593;28;20567;-87
2022/06/10 12:05:54;;;;;;;4.32;1.05;;;32.50;86.00;;;;;;5074947;28;20501;-90
2022/06/10 12:08:41;;;;;;;1.58;0.75;;;32.80;88.60;;;;;;5077210;28;20449;-89
2022/06/10 12:11:29;;;;;;;2.15;0.50;;;35.90;84.10;;;;;;5080223;28;20029;-91
2022/06/10 12:14:09;;;;;;;1.30;0.70;;;35.80;82.80;;;;;;5064669;28;20216;-88
2022/06/10 12:16:36;;;;;;;3.95;0.73;;;33.90;81.90;;;;;;5080000;28;20031;-86
2022/06/10 12:19:10;;;;;;;1.83;0.80;;;32.50;83.70;;;;;;5076030;28;20494;-95
2022/06/10 12:21:37;;;;;;;1.30;0.73;;;31.60;86.40;;;;;;5084657;28;20465;-96
2022/06/10 12:24:04;;;;;;;3.47;0.50;;;31.40;85.50;;;;;;5086713;28;20043;-90
2022/06/10 12:26:45;;;;;;;1.13;0.85;;;31.30;86.40;;;;;;5078329;28;20193;-95
2022/06/10 12:29:17;;;;;;;0.55;0.43;;;32.00;85.20;;;;;;5076192;28;20363;-93
2022/06/10 12:32:01;;;;;;;3.90;0.65;;;32.20;86.30;;;;;;5076773;28;20180;-91
2022/06/10 12:34:36;;;;;;;1.13;0.70;;;33.50;84.10;;;;;;5079637;28;20070;-92
2022/06/10 12:37:07;;;;;;;1.15;0.60;;;33.20;83.00;;;;;;5078019;28;20028;-88
2022/06/10 12:40:02;;;;;;;2.85;0.52;;;32.10;84.10;;;;;;5080173;28;20024;-92
2022/06/10 12:42:44;;;;;;;2.38;0.60;;;31.10;84.90;;;;;;5076271;28;20040;-86
2022/06/10 12:45:17;;;;;;;;;;;30.40;86.30;;;;;;5075659;28;20043;-89
2022/06/10 12:47:44;;;;;;;0.77;0.40;;;30.10;85.90;;;;;;5077460;28;19969;-92
2022/06/10 12:50:34;;;;;;;1.05;0.80;;;29.80;90.20;;;;;;5075465;28;20024;-94
2022/06/10 12:53:37;;;;;;;0.50;0.50;;;31.00;88.60;;;;;;5071529;28;20110;-90
2022/06/10 12:56:21;;;;;;;2.10;0.63;;;35.50;82.50;;;;;;5077215;28;20034;-90
2022/06/10 12:59:08;;;;;;;2.95;0.50;;;37.70;78.30;;;;;;5086257;28;20017;-91
2022/06/10 13:01:34;;;;;;;5.80;0.70;;;39.50;74.90;;;;;;5073120;28;20021;-91
2022/06/10 13:04:04;;;;;;;2.40;0.70;;;39.70;71.20;;;;;;5087888;28;20094;-92
2022/06/10 13:06:45;;;;;;;0.52;0.52;;;37.70;72.30;;;;;;5090191;28;20028;-91
2022/06/10 13:09:12;;;;;;;1.15;0.80;;;37.40;75.60;;;;;;5078300;28;20013;-91
2022/06/10 13:11:56;;;;;;;0.73;0.50;;;38.70;71.50;;;;;;5078669;28;20028;-91
2022/06/10 13:14:25;;;;;;;1.10;0.55;;;38.80;69.00;;;;;;5066083;28;20146;-93
2022/06/10 13:17:00;;;;;;;0.95;0.60;;;39.90;68.90;;;;;;5076384;28;20336;-92
2022/06/10 13:19:53;;;;;;;0.55;0.50;;;40.20;68.00;;;;;;5076462;28;20035;-89
2022/06/10 13:22:20;;;;;;;3.00;0.80;;;40.30;66.00;;;;;;5078757;28;20024;-91
2022/06/10 13:24:52;;;;;;;0.65;0.63;;;39.00;66.50;;;;;;5082627;28;20123;-92
2022/06/10 13:27:26;;;;;;;6.57;0.60;;;39.30;68.10;;;;;;5074238;28;20021;-90
2022/06/10 13:30:00;;;;;;;1.55;0.77;;;38.90;65.80;;;;;;5080019;28;20530;-91
2022/06/10 13:32:28;;;;;;;1.00;0.60;;;38.80;67.70;;;;;;5055835;28;20033;-92